Time;durP1;ratioP1;P1;durP2;ratioP2;P2;SDS_P1;SDS_P2;PMS_P1;PMS_P2;Temp;Humidity;BMP_temperature;BMP_pressure;BME280_temperature;BME280_humidity;BME280_pressure;Samples;Min_cycle;Max_cycle;Signal;HPM_P1;HPM_P2
2022/03/22 00:07:38;;;;;;;58.20;32.60;;;;;;;1.10;41.49;101705.92;430965;1271;141047;-69
2022/03/22 00:17:44;;;;;;;56.30;34.40;;;;;;;0.89;42.12;101704.18;431222;1270;141947;-67
2022/03/22 00:27:53;;;;;;;50.20;25.90;;;;;;;0.81;42.34;101704.45;431249;1271;141441;-67
2022/03/22 00:38:01;;;;;;;44.30;28.10;;;;;;;0.84;42.50;101706.20;430858;1271;142088;-64
2022/03/22 00:48:13;;;;;;;41.40;26.10;;;;;;;0.85;42.58;101703.80;431426;1270;143938;-70
2022/03/22 00:58:19;;;;;;;40.40;24.40;;;;;;;1.00;42.33;101699.46;431197;1271;140891;-66
2022/03/22 01:08:26;;;;;;;47.60;29.20;;;;;;;1.02;42.59;101693.44;431691;1271;141068;-66
2022/03/22 01:18:32;;;;;;;43.70;26.00;;;;;;;0.77;43.26;101691.30;431858;1270;142082;-66
2022/03/22 01:28:38;;;;;;;46.10;27.70;;;;;;;0.49;43.90;101688.23;430655;1270;141702;-65
2022/03/22 01:38:44;;;;;;;45.00;27.70;;;;;;;0.25;44.92;101691.05;432086;1270;141053;-68
2022/03/22 01:48:51;;;;;;;49.90;29.70;;;;;;;-0.03;45.52;101690.52;431790;1269;141543;-68
2022/03/22 01:58:57;;;;;;;51.10;28.90;;;;;;;-0.34;46.30;101687.67;431815;1270;141924;-68
2022/03/22 02:09:04;;;;;;;51.00;28.00;;;;;;;-0.45;46.17;101682.52;431536;1271;142190;-66
2022/03/22 02:19:14;;;;;;;52.40;29.70;;;;;;;-0.55;46.79;101682.89;431881;1269;143092;-68
2022/03/22 02:29:20;;;;;;;46.20;26.80;;;;;;;-0.73;47.10;101677.45;432556;1270;196389;-66
2022/03/22 02:39:27;;;;;;;48.30;25.70;;;;;;;-0.88;47.54;101680.11;431636;1270;145602;-66
2022/03/22 02:49:34;;;;;;;50.00;28.90;;;;;;;-1.14;48.51;101687.42;432263;1270;141784;-67
2022/03/22 02:59:40;;;;;;;45.90;27.50;;;;;;;-1.43;49.12;101688.25;433052;1270;142070;-68
2022/03/22 03:09:46;;;;;;;44.30;26.70;;;;;;;-1.70;49.75;101696.81;430592;1269;146778;-69
2022/03/22 03:19:52;;;;;;;43.60;27.20;;;;;;;-1.92;50.33;101699.98;431828;1269;142405;-68
2022/03/22 03:29:58;;;;;;;48.40;29.50;;;;;;;-2.11;50.99;101699.22;431402;1270;142513;-67
2022/03/22 03:40:05;;;;;;;47.20;27.00;;;;;;;-2.27;51.52;101706.74;431356;1270;142173;-68
2022/03/22 03:50:12;;;;;;;46.80;26.60;;;;;;;-2.42;52.13;101712.07;431300;1270;142066;-69
2022/03/22 04:00:19;;;;;;;47.80;26.70;;;;;;;-2.53;52.34;101710.94;431045;1269;162555;-68
2022/03/22 04:10:25;;;;;;;51.70;24.60;;;;;;;-2.54;52.62;101716.59;434162;1269;141510;-69
2022/03/22 04:20:30;;;;;;;47.90;25.20;;;;;;;-2.46;52.80;101722.10;432571;1270;141987;-70
2022/03/22 04:41:00;;;;;;;37.00;23.00;;;;;;;-1.87;52.12;101715.85;431515;1269;142825;-69
2022/03/22 05:01:30;;;;;;;43.00;26.00;;;;;;;-1.00;51.39;101722.73;431179;1271;142283;-66
2022/03/22 05:11:36;;;;;;;37.70;22.00;;;;;;;-0.59;50.68;101722.23;432573;1270;141150;-68
2022/03/22 05:21:42;;;;;;;42.50;23.70;;;;;;;-0.04;49.92;101719.95;430839;1270;143365;-67
2022/03/22 05:31:48;;;;;;;36.10;23.30;;;;;;;0.48;49.01;101726.31;430602;1270;141530;-68
2022/03/22 05:41:54;;;;;;;37.00;23.20;;;;;;;2.26;48.17;101722.40;429992;1271;141442;-68
2022/03/22 05:52:00;;;;;;;43.20;26.50;;;;;;;7.00;45.30;101718.12;429532;1270;141303;-68
2022/03/22 06:02:07;;;;;;;40.60;26.30;;;;;;;14.97;37.47;101707.19;430784;1270;143674;-68
2022/03/22 06:12:14;;;;;;;32.80;26.00;;;;;;;20.34;30.68;101700.17;431575;1270;142346;-69
2022/03/22 06:22:21;;;;;;;25.10;22.00;;;;;;;23.54;26.40;101696.85;431534;1270;142180;-66
2022/03/22 06:32:27;;;;;;;25.70;21.40;;;;;;;26.11;23.30;101694.83;431388;1269;141869;-68
2022/03/22 06:42:32;;;;;;;26.40;20.80;;;;;;;27.52;21.25;101696.05;431863;1270;142234;-67
2022/03/22 06:52:39;;;;;;;28.00;21.70;;;;;;;29.12;19.34;101693.90;432357;1269;142946;-68
2022/03/22 07:02:45;;;;;;;23.40;20.20;;;;;;;30.17;18.05;101685.23;432780;1270;142424;-67
2022/03/22 07:12:53;;;;;;;22.70;20.30;;;;;;;31.89;16.96;101677.59;430854;1268;142368;-68
2022/03/22 07:22:59;;;;;;;24.20;20.60;;;;;;;32.78;16.19;101682.13;437353;1269;146563;-68
2022/03/22 07:33:05;;;;;;;24.00;20.20;;;;;;;34.09;15.27;101685.29;432102;1270;141736;-72
2022/03/22 07:43:11;;;;;;;19.80;17.60;;;;;;;35.04;14.53;101683.80;429994;1271;143651;-72
2022/03/22 07:53:17;;;;;;;17.10;15.50;;;;;;;36.03;13.93;101682.71;435938;1270;140346;-64
2022/03/22 08:03:23;;;;;;;17.60;15.80;;;;;;;36.63;13.14;101682.25;434015;1269;143981;-61
2022/03/22 08:13:29;;;;;;;16.70;15.20;;;;;;;37.14;12.81;101680.19;431857;1269;142970;-67
2022/03/22 08:23:35;;;;;;;18.90;16.80;;;;;;;36.64;12.35;101675.60;430901;1270;141489;-67
2022/03/22 08:33:41;;;;;;;17.90;16.30;;;;;;;36.35;12.32;101674.17;430278;1270;141335;-67
2022/03/22 08:43:47;;;;;;;17.60;16.00;;;;;;;37.13;11.99;101669.80;431342;1270;140551;-70
2022/03/22 08:53:54;;;;;;;15.40;14.00;;;;;;;36.66;11.82;101668.16;432174;1270;141681;-65
2022/03/22 09:14:24;;;;;;;17.30;15.40;;;;;;;23.80;14.85;101665.50;431739;1270;142692;-64
2022/03/22 09:24:30;;;;;;;19.60;14.50;;;;;;;20.02;17.14;101665.30;432048;1269;141805;-70
2022/03/22 09:34:36;;;;;;;18.30;14.40;;;;;;;18.02;18.60;101663.61;433608;1269;141440;-69
2022/03/22 09:44:42;;;;;;;19.30;15.30;;;;;;;16.86;19.82;101658.05;432602;1269;141261;-65
2022/03/22 09:54:48;;;;;;;26.50;16.20;;;;;;;15.89;21.00;101653.85;430987;1270;141304;-64
2022/03/22 10:04:54;;;;;;;18.20;14.20;;;;;;;15.45;21.68;101643.60;432573;1270;141552;-66
2022/03/22 10:15:10;;;;;;;20.50;15.40;;;;;;;15.12;22.17;101635.89;431587;1270;141986;-62
2022/03/22 10:25:18;;;;;;;20.20;14.90;;;;;;;14.83;22.82;101627.48;430880;1270;142385;-72
2022/03/22 10:35:24;;;;;;;;;;;;;;;14.69;23.59;101621.42;430760;1270;192848;-70
2022/03/22 10:45:40;;;;;;;22.30;15.70;;;;;;;14.48;24.30;101616.30;433647;1270;128506;-69
2022/03/22 10:55:48;;;;;;;23.60;16.00;;;;;;;14.53;24.58;101605.10;431798;1268;140714;-62
2022/03/22 11:05:56;;;;;;;20.40;16.60;;;;;;;14.31;24.98;101592.94;432981;1270;142397;-72
2022/03/22 11:16:03;;;;;;;18.10;14.40;;;;;;;14.23;25.34;101579.61;431333;1270;141617;-58
2022/03/22 11:26:13;;;;;;;15.50;12.90;;;;;;;14.13;25.49;101574.75;432100;1270;142272;-58
2022/03/22 11:36:21;;;;;;;13.50;10.60;;;;;;;14.15;25.35;101565.34;430995;1270;151540;-63
2022/03/22 11:46:36;;;;;;;16.80;10.80;;;;;;;14.11;25.49;101550.02;432464;1270;140940;-62
2022/03/22 11:56:49;;;;;;;14.20;11.90;;;;;;;14.25;25.56;101540.17;432169;1270;142210;-60
2022/03/22 12:06:56;;;;;;;13.70;10.60;;;;;;;14.42;25.87;101525.61;431907;1270;247951;-62
2022/03/22 12:17:04;;;;;;;13.90;11.00;;;;;;;14.55;25.58;101520.09;431399;1270;141773;-60
2022/03/22 12:27:11;;;;;;;13.70;10.10;;;;;;;14.63;25.76;101508.06;432870;1270;141551;-58
2022/03/22 12:37:19;;;;;;;13.00;10.20;;;;;;;14.74;25.60;101498.87;431004;1270;142021;-66
2022/03/22 12:47:26;;;;;;;14.20;10.50;;;;;;;14.80;25.66;101488.87;431367;1270;142014;-60
2022/03/22 12:57:33;;;;;;;12.10;9.60;;;;;;;14.84;25.58;101472.11;432114;1270;140948;-65
2022/03/22 13:07:45;;;;;;;16.40;10.50;;;;;;;14.95;25.54;101466.77;431711;1271;145366;-63
2022/03/22 13:17:53;;;;;;;19.30;11.90;;;;;;;14.99;25.45;101456.85;432555;1271;141770;-67
2022/03/22 13:28:01;;;;;;;13.30;11.30;;;;;;;15.00;25.35;101449.42;432210;1270;146914;-65
2022/03/22 13:38:13;;;;;;;16.10;10.60;;;;;;;15.03;25.58;101440.80;432515;1270;141351;-61
2022/03/22 13:48:20;;;;;;;18.10;9.90;;;;;;;15.16;25.78;101425.78;432201;1270;141781;-61
2022/03/22 13:58:29;;;;;;;14.60;10.20;;;;;;;15.31;25.86;101419.02;434314;1270;142009;-60
2022/03/22 14:08:39;;;;;;;15.10;12.00;;;;;;;15.44;25.87;101413.73;432703;1270;141740;-59
2022/03/22 14:18:45;;;;;;;12.70;10.00;;;;;;;15.49;25.87;101404.94;432847;1270;141857;-61
2022/03/22 14:28:51;;;;;;;17.60;10.00;;;;;;;15.51;25.94;101391.25;431518;1270;142411;-61
2022/03/22 14:38:57;;;;;;;16.80;10.80;;;;;;;15.53;25.88;101383.21;433362;1270;141198;-58
2022/03/22 14:49:04;;;;;;;16.90;11.00;;;;;;;15.50;26.06;101370.66;431524;1270;142173;-57
2022/03/22 14:59:10;;;;;;;13.00;9.50;;;;;;;15.47;26.21;101361.84;431979;1270;142551;-68
2022/03/22 15:09:16;;;;;;;14.90;11.10;;;;;;;15.41;26.32;101345.73;430068;1270;142428;-59
2022/03/22 15:19:27;;;;;;;13.10;10.20;;;;;;;15.40;26.25;101340.69;431625;1271;141618;-63
2022/03/22 15:29:33;;;;;;;13.70;10.00;;;;;;;15.39;26.40;101332.98;431927;1271;141486;-68
2022/03/22 15:40:00;;;;;;;14.80;10.80;;;;;;;15.29;26.44;101329.12;431125;1271;141226;-59
2022/03/22 15:50:07;;;;;;;16.80;11.40;;;;;;;15.15;26.73;101326.04;431688;1270;141821;-60
2022/03/22 16:00:16;;;;;;;14.60;10.90;;;;;;;14.97;26.84;101324.54;432004;1270;142382;-62
2022/03/22 16:10:24;;;;;;;17.80;11.30;;;;;;;14.72;27.23;101325.68;432111;1270;140957;-67
2022/03/22 16:20:31;;;;;;;19.80;12.50;;;;;;;14.50;27.35;101319.95;432338;1271;141871;-62
2022/03/22 16:30:38;;;;;;;25.70;13.10;;;;;;;14.20;27.80;101317.11;431983;1270;142206;-71
2022/03/22 16:40:46;;;;;;;28.30;14.90;;;;;;;13.73;28.11;101314.52;433708;1270;141474;-67
2022/03/22 16:50:56;;;;;;;19.60;14.10;;;;;;;13.18;28.63;101308.02;432650;1270;141299;-62
2022/03/22 17:01:04;;;;;;;24.00;17.50;;;;;;;12.62;29.38;101306.69;432074;1270;141087;-62
2022/03/22 17:11:12;;;;;;;34.40;21.00;;;;;;;12.05;30.26;101313.02;432069;1268;141895;-66
2022/03/22 17:21:18;;;;;;;42.70;20.50;;;;;;;11.49;31.22;101311.79;431748;1269;163698;-67
2022/03/22 17:31:26;;;;;;;140.20;33.60;;;;;;;10.94;32.24;101314.98;430993;1271;141056;-63
2022/03/22 17:41:33;;;;;;;111.20;28.90;;;;;;;10.42;33.51;101314.73;431428;1270;141979;-61
2022/03/22 17:51:39;;;;;;;85.50;26.40;;;;;;;9.93;34.48;101312.39;431355;1271;142467;-63
2022/03/22 18:01:45;;;;;;;77.80;25.60;;;;;;;9.49;35.13;101310.66;438171;1270;142076;-62
2022/03/22 18:11:52;;;;;;;89.50;29.90;;;;;;;9.13;36.09;101310.90;447180;1270;141234;-61
2022/03/22 18:21:58;;;;;;;90.70;37.20;;;;;;;8.78;37.15;101304.59;445083;1269;142683;-60
2022/03/22 18:32:06;;;;;;;114.40;38.00;;;;;;;8.43;37.48;101304.15;432640;1269;142076;-61
2022/03/22 18:42:12;;;;;;;90.60;51.70;;;;;;;8.04;38.50;101309.70;432850;1270;142043;-60
2022/03/22 18:52:19;;;;;;;77.30;41.80;;;;;;;7.81;38.61;101308.55;432239;1270;142615;-60
2022/03/22 19:02:45;;;;;;;79.10;39.00;;;;;;;7.44;39.62;101305.23;431036;1271;140899;-58
2022/03/22 19:12:53;;;;;;;102.40;50.40;;;;;;;6.96;40.67;101310.30;430952;1270;145042;-60
2022/03/22 19:23:00;;;;;;;138.40;87.10;;;;;;;6.74;40.88;101307.45;431843;1270;142481;-59
2022/03/22 19:33:07;;;;;;;89.80;45.60;;;;;;;6.71;41.24;101300.55;432048;1271;141882;-58
2022/03/22 19:43:14;;;;;;;85.20;42.50;;;;;;;6.30;41.95;101294.90;430765;1268;143611;-59
2022/03/22 19:53:20;;;;;;;67.60;39.70;;;;;;;5.96;42.74;101291.16;432322;1270;142030;-59
2022/03/22 20:03:26;;;;;;;63.80;35.70;;;;;;;6.06;43.24;101288.73;431635;1271;143676;-59
2022/03/22 20:13:32;;;;;;;86.80;40.50;;;;;;;5.93;43.16;101288.59;432206;1270;145701;-58
2022/03/22 20:23:39;;;;;;;62.90;36.90;;;;;;;5.70;43.59;101291.58;430915;1271;140947;-59
2022/03/22 20:33:45;;;;;;;51.80;33.90;;;;;;;5.82;44.00;101286.69;430456;1271;141730;-60
2022/03/22 20:43:51;;;;;;;53.10;33.20;;;;;;;5.91;44.04;101284.09;431703;1270;144065;-58
2022/03/22 20:53:58;;;;;;;50.80;34.40;;;;;;;5.94;43.98;101280.40;431571;1270;141563;-59
2022/03/22 21:04:04;;;;;;;56.40;35.00;;;;;;;5.90;44.26;101273.16;431023;1270;141299;-59
2022/03/22 21:14:11;;;;;;;53.20;35.10;;;;;;;5.95;44.18;101259.17;432949;1269;141109;-59
2022/03/22 21:24:17;;;;;;;51.90;34.70;;;;;;;5.80;44.16;101254.40;432233;1270;142046;-60
2022/03/22 21:34:23;;;;;;;54.00;34.50;;;;;;;5.54;44.59;101247.70;432573;1269;141869;-60
2022/03/22 21:44:30;;;;;;;55.80;33.20;;;;;;;5.35;44.92;101239.49;432245;1270;146666;-58
2022/03/22 21:54:37;;;;;;;58.80;39.10;;;;;;;5.11;45.35;101236.56;434530;1270;142482;-59
2022/03/22 22:04:43;;;;;;;101.70;44.30;;;;;;;4.72;45.62;101235.36;430362;1270;142589;-59
2022/03/22 22:14:48;;;;;;;77.70;37.50;;;;;;;4.26;46.42;101232.64;431041;1270;141472;-58
2022/03/22 22:24:54;;;;;;;109.90;44.60;;;;;;;3.99;47.01;101230.14;431273;1270;141721;-58
2022/03/22 22:35:00;;;;;;;73.10;42.00;;;;;;;3.60;47.79;101223.08;431745;1270;143110;-60
2022/03/22 22:45:09;;;;;;;93.50;44.90;;;;;;;3.34;48.26;101218.60;430809;1270;141089;-58
2022/03/22 22:55:15;;;;;;;113.00;48.50;;;;;;;2.88;48.78;101209.05;430984;1270;140766;-59
2022/03/22 23:05:21;;;;;;;61.90;37.80;;;;;;;2.46;49.62;101208.77;431857;1268;145506;-60
2022/03/22 23:15:27;;;;;;;62.30;31.80;;;;;;;2.30;50.15;101200.52;430770;1270;142376;-58
2022/03/22 23:25:34;;;;;;;52.80;30.80;;;;;;;2.41;50.37;101194.79;431573;1269;141217;-59
2022/03/22 23:35:40;;;;;;;46.80;26.80;;;;;;;2.64;50.15;101188.80;431454;1269;141207;-59
2022/03/22 23:45:47;;;;;;;42.40;28.70;;;;;;;2.78;49.88;101181.97;429794;1270;141808;-59
2022/03/22 23:55:53;;;;;;;63.70;33.70;;;;;;;2.57;49.86;101177.41;431875;1270;143364;-60
